sensor_id;sensor_type;location;lat;lon;timestamp;P1;durP1;ratioP1;P2;durP2;ratioP2
29358;SDS011;16347;53.232;6.556;2023-03-21T00:00:54;30.55;;;15.15;;
29358;SDS011;16347;53.232;6.556;2023-03-21T00:03:22;28.48;;;15.80;;
29358;SDS011;16347;53.232;6.556;2023-03-21T00:05:52;27.95;;;16.05;;
29358;SDS011;16347;53.232;6.556;2023-03-21T00:08:21;26.98;;;14.65;;
29358;SDS011;16347;53.232;6.556;2023-03-21T00:10:54;34.75;;;15.50;;
29358;SDS011;16347;53.232;6.556;2023-03-21T00:13:24;27.17;;;13.95;;
29358;SDS011;16347;53.232;6.556;2023-03-21T00:15:53;24.88;;;14.20;;
29358;SDS011;16347;53.232;6.556;2023-03-21T00:18:38;26.67;;;15.20;;
29358;SDS011;16347;53.232;6.556;2023-03-21T00:21:10;27.77;;;14.43;;
29358;SDS011;16347;53.232;6.556;2023-03-21T00:24:00;27.30;;;13.38;;
29358;SDS011;16347;53.232;6.556;2023-03-21T00:26:28;25.27;;;13.30;;
29358;SDS011;16347;53.232;6.556;2023-03-21T00:28:57;27.50;;;15.07;;
29358;SDS011;16347;53.232;6.556;2023-03-21T00:31:25;25.85;;;13.70;;
29358;SDS011;16347;53.232;6.556;2023-03-21T00:33:53;29.63;;;13.20;;
29358;SDS011;16347;53.232;6.556;2023-03-21T00:36:23;20.65;;;12.73;;
29358;SDS011;16347;53.232;6.556;2023-03-21T00:38:52;24.30;;;13.77;;
29358;SDS011;16347;53.232;6.556;2023-03-21T00:41:21;26.92;;;13.05;;
29358;SDS011;16347;53.232;6.556;2023-03-21T00:44:08;22.63;;;13.07;;
29358;SDS011;16347;53.232;6.556;2023-03-21T00:46:37;22.50;;;12.55;;
29358;SDS011;16347;53.232;6.556;2023-03-21T00:49:17;30.52;;;14.75;;
29358;SDS011;16347;53.232;6.556;2023-03-21T00:51:47;32.17;;;14.50;;
29358;SDS011;16347;53.232;6.556;2023-03-21T00:54:17;39.13;;;15.90;;
29358;SDS011;16347;53.232;6.556;2023-03-21T00:56:45;45.90;;;16.65;;
29358;SDS011;16347;53.232;6.556;2023-03-21T00:59:13;49.88;;;17.25;;
29358;SDS011;16347;53.232;6.556;2023-03-21T01:01:42;49.60;;;17.27;;
29358;SDS011;16347;53.232;6.556;2023-03-21T01:04:12;53.17;;;16.88;;
29358;SDS011;16347;53.232;6.556;2023-03-21T01:06:42;52.78;;;18.05;;
29358;SDS011;16347;53.232;6.556;2023-03-21T01:09:14;53.85;;;17.45;;
29358;SDS011;16347;53.232;6.556;2023-03-21T01:11:43;65.93;;;19.70;;
29358;SDS011;16347;53.232;6.556;2023-03-21T01:14:13;75.53;;;21.25;;
29358;SDS011;16347;53.232;6.556;2023-03-21T01:16:49;77.20;;;20.58;;
29358;SDS011;16347;53.232;6.556;2023-03-21T01:19:19;78.95;;;22.02;;
29358;SDS011;16347;53.232;6.556;2023-03-21T01:21:56;77.80;;;22.73;;
29358;SDS011;16347;53.232;6.556;2023-03-21T01:24:26;74.95;;;23.17;;
29358;SDS011;16347;53.232;6.556;2023-03-21T01:26:53;69.25;;;22.90;;
29358;SDS011;16347;53.232;6.556;2023-03-21T01:29:21;78.50;;;22.92;;
29358;SDS011;16347;53.232;6.556;2023-03-21T01:31:50;81.85;;;22.45;;
29358;SDS011;16347;53.232;6.556;2023-03-21T01:34:18;96.88;;;23.27;;
29358;SDS011;16347;53.232;6.556;2023-03-21T01:36:46;82.03;;;24.10;;
29358;SDS011;16347;53.232;6.556;2023-03-21T01:39:18;94.68;;;23.48;;
29358;SDS011;16347;53.232;6.556;2023-03-21T01:41:49;87.28;;;24.90;;
29358;SDS011;16347;53.232;6.556;2023-03-21T01:44:23;86.53;;;22.85;;
29358;SDS011;16347;53.232;6.556;2023-03-21T01:46:51;65.60;;;21.85;;
29358;SDS011;16347;53.232;6.556;2023-03-21T01:49:44;77.82;;;23.50;;
29358;SDS011;16347;53.232;6.556;2023-03-21T01:52:20;75.22;;;21.95;;
29358;SDS011;16347;53.232;6.556;2023-03-21T01:55:09;53.20;;;19.70;;
29358;SDS011;16347;53.232;6.556;2023-03-21T01:57:53;56.43;;;20.17;;
29358;SDS011;16347;53.232;6.556;2023-03-21T02:00:41;56.80;;;19.10;;
29358;SDS011;16347;53.232;6.556;2023-03-21T02:03:23;52.42;;;18.48;;
29358;SDS011;16347;53.232;6.556;2023-03-21T02:06:27;58.83;;;18.67;;
29358;SDS011;16347;53.232;6.556;2023-03-21T02:09:13;55.22;;;19.85;;
29358;SDS011;16347;53.232;6.556;2023-03-21T02:11:44;55.78;;;21.45;;
29358;SDS011;16347;53.232;6.556;2023-03-21T02:14:16;69.00;;;22.17;;
29358;SDS011;16347;53.232;6.556;2023-03-21T02:17:01;68.57;;;21.73;;
29358;SDS011;16347;53.232;6.556;2023-03-21T02:19:46;58.25;;;20.65;;
29358;SDS011;16347;53.232;6.556;2023-03-21T02:22:47;58.80;;;19.85;;
29358;SDS011;16347;53.232;6.556;2023-03-21T02:25:49;64.03;;;22.42;;
29358;SDS011;16347;53.232;6.556;2023-03-21T02:28:35;52.58;;;21.48;;
29358;SDS011;16347;53.232;6.556;2023-03-21T02:31:18;59.58;;;21.67;;
29358;SDS011;16347;53.232;6.556;2023-03-21T02:37:06;51.42;;;21.35;;
29358;SDS011;16347;53.232;6.556;2023-03-21T02:39:48;50.65;;;20.98;;
29358;SDS011;16347;53.232;6.556;2023-03-21T02:42:28;47.03;;;21.08;;
29358;SDS011;16347;53.232;6.556;2023-03-21T02:45:10;42.97;;;18.98;;
29358;SDS011;16347;53.232;6.556;2023-03-21T02:47:53;51.08;;;19.83;;
29358;SDS011;16347;53.232;6.556;2023-03-21T02:50:26;46.60;;;20.33;;
29358;SDS011;16347;53.232;6.556;2023-03-21T02:53:01;48.30;;;20.83;;
29358;SDS011;16347;53.232;6.556;2023-03-21T02:55:34;45.00;;;19.85;;
29358;SDS011;16347;53.232;6.556;2023-03-21T02:58:05;39.53;;;18.85;;
29358;SDS011;16347;53.232;6.556;2023-03-21T03:00:58;46.47;;;20.90;;
29358;SDS011;16347;53.232;6.556;2023-03-21T03:03:41;37.83;;;18.80;;
29358;SDS011;16347;53.232;6.556;2023-03-21T03:06:14;42.45;;;19.17;;
29358;SDS011;16347;53.232;6.556;2023-03-21T03:08:50;36.17;;;18.63;;
29358;SDS011;16347;53.232;6.556;2023-03-21T03:11:32;41.72;;;19.55;;
29358;SDS011;16347;53.232;6.556;2023-03-21T03:14:05;40.50;;;19.17;;
29358;SDS011;16347;53.232;6.556;2023-03-21T03:17:06;37.65;;;18.05;;
29358;SDS011;16347;53.232;6.556;2023-03-21T03:19:43;33.95;;;17.90;;
29358;SDS011;16347;53.232;6.556;2023-03-21T03:22:35;34.97;;;18.85;;
29358;SDS011;16347;53.232;6.556;2023-03-21T03:25:10;31.58;;;17.55;;
29358;SDS011;16347;53.232;6.556;2023-03-21T03:27:55;33.40;;;18.10;;
29358;SDS011;16347;53.232;6.556;2023-03-21T03:30:25;31.13;;;18.52;;
29358;SDS011;16347;53.232;6.556;2023-03-21T03:33:06;33.83;;;19.15;;
29358;SDS011;16347;53.232;6.556;2023-03-21T03:35:38;34.03;;;18.60;;
29358;SDS011;16347;53.232;6.556;2023-03-21T03:38:06;39.13;;;19.65;;
29358;SDS011;16347;53.232;6.556;2023-03-21T03:40:38;34.60;;;18.08;;
29358;SDS011;16347;53.232;6.556;2023-03-21T03:43:28;38.78;;;19.67;;
29358;SDS011;16347;53.232;6.556;2023-03-21T03:46:01;34.00;;;18.73;;
29358;SDS011;16347;53.232;6.556;2023-03-21T03:48:38;35.92;;;19.45;;
29358;SDS011;16347;53.232;6.556;2023-03-21T03:51:14;35.70;;;19.10;;
29358;SDS011;16347;53.232;6.556;2023-03-21T03:54:02;36.15;;;19.55;;
29358;SDS011;16347;53.232;6.556;2023-03-21T03:56:38;36.30;;;20.13;;
29358;SDS011;16347;53.232;6.556;2023-03-21T03:59:06;37.05;;;18.88;;
29358;SDS011;16347;53.232;6.556;2023-03-21T04:01:50;35.72;;;19.08;;
29358;SDS011;16347;53.232;6.556;2023-03-21T04:04:18;37.40;;;19.50;;
29358;SDS011;16347;53.232;6.556;2023-03-21T04:06:49;30.50;;;17.95;;
29358;SDS011;16347;53.232;6.556;2023-03-21T04:09:21;34.30;;;18.48;;
29358;SDS011;16347;53.232;6.556;2023-03-21T04:12:10;36.75;;;18.13;;
29358;SDS011;16347;53.232;6.556;2023-03-21T04:14:41;31.92;;;17.95;;
29358;SDS011;16347;53.232;6.556;2023-03-21T04:17:14;35.63;;;18.85;;
29358;SDS011;16347;53.232;6.556;2023-03-21T04:19:42;38.58;;;17.33;;
29358;SDS011;16347;53.232;6.556;2023-03-21T04:22:12;39.42;;;17.67;;
29358;SDS011;16347;53.232;6.556;2023-03-21T04:24:42;36.13;;;17.92;;
29358;SDS011;16347;53.232;6.556;2023-03-21T04:27:13;41.40;;;19.10;;
29358;SDS011;16347;53.232;6.556;2023-03-21T04:29:46;36.28;;;17.60;;
29358;SDS011;16347;53.232;6.556;2023-03-21T04:32:32;32.58;;;17.38;;
29358;SDS011;16347;53.232;6.556;2023-03-21T04:35:10;36.45;;;17.80;;
29358;SDS011;16347;53.232;6.556;2023-03-21T04:37:38;37.83;;;17.30;;
29358;SDS011;16347;53.232;6.556;2023-03-21T04:40:12;32.53;;;16.48;;
29358;SDS011;16347;53.232;6.556;2023-03-21T04:42:45;38.47;;;17.45;;
29358;SDS011;16347;53.232;6.556;2023-03-21T04:45:14;30.92;;;15.32;;
29358;SDS011;16347;53.232;6.556;2023-03-21T04:47:44;29.20;;;14.45;;
29358;SDS011;16347;53.232;6.556;2023-03-21T04:50:12;35.97;;;14.43;;
29358;SDS011;16347;53.232;6.556;2023-03-21T04:52:42;30.20;;;15.80;;
29358;SDS011;16347;53.232;6.556;2023-03-21T04:55:10;29.23;;;13.90;;
29358;SDS011;16347;53.232;6.556;2023-03-21T04:57:41;27.65;;;13.30;;
29358;SDS011;16347;53.232;6.556;2023-03-21T05:00:11;27.35;;;13.52;;
29358;SDS011;16347;53.232;6.556;2023-03-21T05:02:40;27.38;;;12.73;;
29358;SDS011;16347;53.232;6.556;2023-03-21T05:05:08;27.48;;;13.63;;
29358;SDS011;16347;53.232;6.556;2023-03-21T05:07:38;25.70;;;13.80;;
29358;SDS011;16347;53.232;6.556;2023-03-21T05:10:07;32.40;;;14.77;;
29358;SDS011;16347;53.232;6.556;2023-03-21T05:12:39;28.27;;;13.85;;
29358;SDS011;16347;53.232;6.556;2023-03-21T05:15:08;27.15;;;13.57;;
29358;SDS011;16347;53.232;6.556;2023-03-21T05:17:37;29.45;;;15.27;;
29358;SDS011;16347;53.232;6.556;2023-03-21T05:20:08;33.78;;;14.07;;
29358;SDS011;16347;53.232;6.556;2023-03-21T05:22:37;30.58;;;14.18;;
29358;SDS011;16347;53.232;6.556;2023-03-21T05:25:11;31.27;;;14.05;;
29358;SDS011;16347;53.232;6.556;2023-03-21T05:28:01;30.55;;;13.73;;
29358;SDS011;16347;53.232;6.556;2023-03-21T05:30:30;28.98;;;13.73;;
29358;SDS011;16347;53.232;6.556;2023-03-21T05:33:00;35.75;;;15.52;;
29358;SDS011;16347;53.232;6.556;2023-03-21T05:35:29;29.58;;;13.93;;
29358;SDS011;16347;53.232;6.556;2023-03-21T05:38:00;35.78;;;15.57;;
29358;SDS011;16347;53.232;6.556;2023-03-21T05:40:33;31.77;;;14.80;;
29358;SDS011;16347;53.232;6.556;2023-03-21T05:43:02;33.75;;;15.93;;
29358;SDS011;16347;53.232;6.556;2023-03-21T05:45:30;34.00;;;16.48;;
29358;SDS011;16347;53.232;6.556;2023-03-21T05:48:00;34.13;;;15.75;;
29358;SDS011;16347;53.232;6.556;2023-03-21T05:50:33;32.10;;;16.10;;
29358;SDS011;16347;53.232;6.556;2023-03-21T05:53:08;30.33;;;15.60;;
29358;SDS011;16347;53.232;6.556;2023-03-21T05:55:36;28.92;;;16.23;;
29358;SDS011;16347;53.232;6.556;2023-03-21T05:58:10;28.40;;;14.80;;
29358;SDS011;16347;53.232;6.556;2023-03-21T06:00:42;38.13;;;15.70;;
29358;SDS011;16347;53.232;6.556;2023-03-21T06:03:21;27.38;;;15.00;;
29358;SDS011;16347;53.232;6.556;2023-03-21T06:05:57;28.98;;;14.30;;
29358;SDS011;16347;53.232;6.556;2023-03-21T06:08:32;32.40;;;15.82;;
29358;SDS011;16347;53.232;6.556;2023-03-21T06:11:00;29.27;;;14.05;;
29358;SDS011;16347;53.232;6.556;2023-03-21T06:13:31;25.90;;;14.02;;
29358;SDS011;16347;53.232;6.556;2023-03-21T06:15:59;25.70;;;14.15;;
29358;SDS011;16347;53.232;6.556;2023-03-21T06:18:32;24.30;;;13.15;;
29358;SDS011;16347;53.232;6.556;2023-03-21T06:21:20;23.08;;;12.82;;
29358;SDS011;16347;53.232;6.556;2023-03-21T06:23:51;24.63;;;12.60;;
29358;SDS011;16347;53.232;6.556;2023-03-21T06:26:19;28.17;;;13.18;;
29358;SDS011;16347;53.232;6.556;2023-03-21T06:28:50;20.13;;;12.23;;
29358;SDS011;16347;53.232;6.556;2023-03-21T06:31:19;22.77;;;12.55;;
29358;SDS011;16347;53.232;6.556;2023-03-21T06:33:51;23.60;;;14.02;;
29358;SDS011;16347;53.232;6.556;2023-03-21T06:36:19;20.40;;;12.48;;
29358;SDS011;16347;53.232;6.556;2023-03-21T06:38:48;22.98;;;11.32;;
29358;SDS011;16347;53.232;6.556;2023-03-21T06:41:16;19.63;;;12.13;;
29358;SDS011;16347;53.232;6.556;2023-03-21T06:43:54;19.83;;;11.90;;
29358;SDS011;16347;53.232;6.556;2023-03-21T06:46:23;20.83;;;12.05;;
29358;SDS011;16347;53.232;6.556;2023-03-21T06:48:53;25.50;;;13.35;;
29358;SDS011;16347;53.232;6.556;2023-03-21T06:51:21;26.40;;;12.73;;
29358;SDS011;16347;53.232;6.556;2023-03-21T06:54:03;21.95;;;12.63;;
29358;SDS011;16347;53.232;6.556;2023-03-21T06:56:38;26.27;;;13.02;;
29358;SDS011;16347;53.232;6.556;2023-03-21T06:59:09;23.85;;;13.77;;
29358;SDS011;16347;53.232;6.556;2023-03-21T07:01:50;22.45;;;13.00;;
29358;SDS011;16347;53.232;6.556;2023-03-21T07:04:20;23.10;;;13.35;;
29358;SDS011;16347;53.232;6.556;2023-03-21T07:06:49;25.70;;;13.30;;
29358;SDS011;16347;53.232;6.556;2023-03-21T07:09:19;24.25;;;14.05;;
29358;SDS011;16347;53.232;6.556;2023-03-21T07:11:52;24.48;;;13.40;;
29358;SDS011;16347;53.232;6.556;2023-03-21T07:14:24;25.65;;;13.25;;
29358;SDS011;16347;53.232;6.556;2023-03-21T07:16:52;27.52;;;13.82;;
29358;SDS011;16347;53.232;6.556;2023-03-21T07:19:22;21.80;;;13.60;;
29358;SDS011;16347;53.232;6.556;2023-03-21T07:21:51;23.50;;;13.43;;
29358;SDS011;16347;53.232;6.556;2023-03-21T07:24:19;22.77;;;13.95;;
29358;SDS011;16347;53.232;6.556;2023-03-21T07:26:48;20.52;;;12.73;;
29358;SDS011;16347;53.232;6.556;2023-03-21T07:29:16;22.95;;;13.27;;
29358;SDS011;16347;53.232;6.556;2023-03-21T07:31:47;22.65;;;13.30;;
29358;SDS011;16347;53.232;6.556;2023-03-21T07:34:15;23.10;;;13.85;;
29358;SDS011;16347;53.232;6.556;2023-03-21T07:36:45;21.88;;;13.30;;
29358;SDS011;16347;53.232;6.556;2023-03-21T07:39:14;22.73;;;12.88;;
29358;SDS011;16347;53.232;6.556;2023-03-21T07:41:43;21.80;;;13.18;;
29358;SDS011;16347;53.232;6.556;2023-03-21T07:44:28;20.90;;;12.70;;
29358;SDS011;16347;53.232;6.556;2023-03-21T07:49:29;20.25;;;12.55;;
29358;SDS011;16347;53.232;6.556;2023-03-21T07:51:59;19.83;;;11.65;;
29358;SDS011;16347;53.232;6.556;2023-03-21T07:54:30;19.17;;;11.05;;
29358;SDS011;16347;53.232;6.556;2023-03-21T07:56:58;20.13;;;11.80;;
29358;SDS011;16347;53.232;6.556;2023-03-21T07:59:26;16.38;;;10.90;;
29358;SDS011;16347;53.232;6.556;2023-03-21T08:01:54;15.98;;;10.43;;
29358;SDS011;16347;53.232;6.556;2023-03-21T08:04:22;16.52;;;10.15;;
29358;SDS011;16347;53.232;6.556;2023-03-21T08:06:51;15.50;;;10.60;;
29358;SDS011;16347;53.232;6.556;2023-03-21T08:09:20;15.88;;;10.13;;
29358;SDS011;16347;53.232;6.556;2023-03-21T08:11:49;14.48;;;9.52;;
29358;SDS011;16347;53.232;6.556;2023-03-21T08:14:17;14.38;;;9.02;;
29358;SDS011;16347;53.232;6.556;2023-03-21T08:16:45;11.32;;;8.18;;
29358;SDS011;16347;53.232;6.556;2023-03-21T08:19:13;14.38;;;8.50;;
29358;SDS011;16347;53.232;6.556;2023-03-21T08:21:41;12.65;;;8.45;;
29358;SDS011;16347;53.232;6.556;2023-03-21T08:24:09;14.38;;;9.25;;
29358;SDS011;16347;53.232;6.556;2023-03-21T08:26:38;14.23;;;8.02;;
29358;SDS011;16347;53.232;6.556;2023-03-21T08:29:06;11.23;;;8.10;;
29358;SDS011;16347;53.232;6.556;2023-03-21T08:31:34;10.60;;;7.78;;
29358;SDS011;16347;53.232;6.556;2023-03-21T08:34:02;11.25;;;7.30;;
29358;SDS011;16347;53.232;6.556;2023-03-21T08:36:30;10.20;;;7.47;;
29358;SDS011;16347;53.232;6.556;2023-03-21T08:38:58;11.88;;;6.88;;
29358;SDS011;16347;53.232;6.556;2023-03-21T08:41:31;10.32;;;7.22;;
29358;SDS011;16347;53.232;6.556;2023-03-21T08:44:00;11.65;;;7.47;;
29358;SDS011;16347;53.232;6.556;2023-03-21T08:46:29;10.23;;;7.10;;
29358;SDS011;16347;53.232;6.556;2023-03-21T08:48:57;11.38;;;7.63;;
29358;SDS011;16347;53.232;6.556;2023-03-21T08:51:25;13.77;;;6.82;;
29358;SDS011;16347;53.232;6.556;2023-03-21T08:53:53;10.32;;;7.28;;
29358;SDS011;16347;53.232;6.556;2023-03-21T08:56:22;8.95;;;6.75;;
29358;SDS011;16347;53.232;6.556;2023-03-21T08:58:50;11.80;;;7.32;;
29358;SDS011;16347;53.232;6.556;2023-03-21T09:01:19;8.55;;;6.35;;
29358;SDS011;16347;53.232;6.556;2023-03-21T09:03:48;9.38;;;6.47;;
29358;SDS011;16347;53.232;6.556;2023-03-21T09:06:16;10.00;;;6.38;;
29358;SDS011;16347;53.232;6.556;2023-03-21T09:08:44;9.73;;;6.68;;
29358;SDS011;16347;53.232;6.556;2023-03-21T09:11:12;10.23;;;6.97;;
29358;SDS011;16347;53.232;6.556;2023-03-21T09:13:40;11.18;;;6.55;;
29358;SDS011;16347;53.232;6.556;2023-03-21T09:16:09;12.63;;;7.00;;
29358;SDS011;16347;53.232;6.556;2023-03-21T09:18:38;12.73;;;7.30;;
29358;SDS011;16347;53.232;6.556;2023-03-21T09:21:13;14.32;;;7.20;;
29358;SDS011;16347;53.232;6.556;2023-03-21T09:23:43;17.50;;;8.48;;
29358;SDS011;16347;53.232;6.556;2023-03-21T09:26:11;22.13;;;8.02;;
29358;SDS011;16347;53.232;6.556;2023-03-21T09:28:39;17.63;;;8.65;;
29358;SDS011;16347;53.232;6.556;2023-03-21T09:31:08;16.95;;;9.07;;
29358;SDS011;16347;53.232;6.556;2023-03-21T09:33:39;14.43;;;8.10;;
29358;SDS011;16347;53.232;6.556;2023-03-21T09:36:08;21.15;;;9.70;;
29358;SDS011;16347;53.232;6.556;2023-03-21T09:38:39;18.50;;;10.93;;
29358;SDS011;16347;53.232;6.556;2023-03-21T09:41:10;22.85;;;11.40;;
29358;SDS011;16347;53.232;6.556;2023-03-21T09:43:52;19.75;;;11.57;;
29358;SDS011;16347;53.232;6.556;2023-03-21T09:46:35;21.55;;;12.93;;
29358;SDS011;16347;53.232;6.556;2023-03-21T09:49:13;24.50;;;12.00;;
29358;SDS011;16347;53.232;6.556;2023-03-21T09:51:46;20.45;;;11.63;;
29358;SDS011;16347;53.232;6.556;2023-03-21T09:54:20;26.60;;;13.20;;
29358;SDS011;16347;53.232;6.556;2023-03-21T09:56:53;18.75;;;11.95;;
29358;SDS011;16347;53.232;6.556;2023-03-21T09:59:25;24.13;;;14.27;;
29358;SDS011;16347;53.232;6.556;2023-03-21T10:02:01;24.52;;;13.98;;
29358;SDS011;16347;53.232;6.556;2023-03-21T10:04:32;20.20;;;12.93;;
29358;SDS011;16347;53.232;6.556;2023-03-21T10:07:02;26.35;;;15.48;;
29358;SDS011;16347;53.232;6.556;2023-03-21T10:09:31;27.35;;;14.80;;
29358;SDS011;16347;53.232;6.556;2023-03-21T10:12:01;29.75;;;16.48;;
29358;SDS011;16347;53.232;6.556;2023-03-21T10:14:34;24.45;;;15.38;;
29358;SDS011;16347;53.232;6.556;2023-03-21T10:17:05;23.73;;;15.80;;
29358;SDS011;16347;53.232;6.556;2023-03-21T10:19:42;27.55;;;14.38;;
29358;SDS011;16347;53.232;6.556;2023-03-21T10:22:11;27.15;;;15.57;;
29358;SDS011;16347;53.232;6.556;2023-03-21T10:24:40;34.42;;;17.30;;
29358;SDS011;16347;53.232;6.556;2023-03-21T10:27:08;33.15;;;16.55;;
29358;SDS011;16347;53.232;6.556;2023-03-21T10:29:39;27.75;;;16.38;;
29358;SDS011;16347;53.232;6.556;2023-03-21T10:32:10;34.85;;;17.00;;
29358;SDS011;16347;53.232;6.556;2023-03-21T10:34:43;33.13;;;16.52;;
29358;SDS011;16347;53.232;6.556;2023-03-21T10:37:13;39.10;;;15.95;;
29358;SDS011;16347;53.232;6.556;2023-03-21T10:39:44;34.78;;;15.18;;
29358;SDS011;16347;53.232;6.556;2023-03-21T10:42:17;32.35;;;15.30;;
29358;SDS011;16347;53.232;6.556;2023-03-21T10:44:48;31.52;;;15.13;;
29358;SDS011;16347;53.232;6.556;2023-03-21T10:47:20;24.38;;;14.82;;
29358;SDS011;16347;53.232;6.556;2023-03-21T10:49:52;25.65;;;14.35;;
29358;SDS011;16347;53.232;6.556;2023-03-21T10:52:37;26.75;;;14.85;;
29358;SDS011;16347;53.232;6.556;2023-03-21T10:55:15;26.95;;;14.38;;
29358;SDS011;16347;53.232;6.556;2023-03-21T10:57:47;26.25;;;14.02;;
29358;SDS011;16347;53.232;6.556;2023-03-21T11:00:19;25.30;;;14.20;;
29358;SDS011;16347;53.232;6.556;2023-03-21T11:02:50;32.22;;;16.67;;
29358;SDS011;16347;53.232;6.556;2023-03-21T11:05:23;39.20;;;17.02;;
29358;SDS011;16347;53.232;6.556;2023-03-21T11:08:01;29.63;;;16.58;;
29358;SDS011;16347;53.232;6.556;2023-03-21T11:10:33;35.10;;;17.23;;
29358;SDS011;16347;53.232;6.556;2023-03-21T11:13:05;38.90;;;17.95;;
29358;SDS011;16347;53.232;6.556;2023-03-21T11:15:40;30.33;;;15.68;;
29358;SDS011;16347;53.232;6.556;2023-03-21T11:18:14;27.40;;;14.77;;
29358;SDS011;16347;53.232;6.556;2023-03-21T11:20:49;30.48;;;15.38;;
29358;SDS011;16347;53.232;6.556;2023-03-21T11:23:19;24.58;;;14.68;;
29358;SDS011;16347;53.232;6.556;2023-03-21T11:25:49;26.45;;;13.68;;
29358;SDS011;16347;53.232;6.556;2023-03-21T11:28:18;28.25;;;13.52;;
29358;SDS011;16347;53.232;6.556;2023-03-21T11:30:49;29.75;;;13.07;;
29358;SDS011;16347;53.232;6.556;2023-03-21T11:33:21;24.83;;;13.45;;
29358;SDS011;16347;53.232;6.556;2023-03-21T11:35:58;20.55;;;12.32;;
29358;SDS011;16347;53.232;6.556;2023-03-21T11:38:29;27.63;;;13.07;;
29358;SDS011;16347;53.232;6.556;2023-03-21T11:41:00;31.50;;;12.70;;
29358;SDS011;16347;53.232;6.556;2023-03-21T11:43:29;26.98;;;12.35;;
29358;SDS011;16347;53.232;6.556;2023-03-21T11:45:59;21.60;;;11.05;;
29358;SDS011;16347;53.232;6.556;2023-03-21T11:48:32;20.95;;;10.63;;
29358;SDS011;16347;53.232;6.556;2023-03-21T11:51:11;25.95;;;11.50;;
29358;SDS011;16347;53.232;6.556;2023-03-21T11:53:48;24.15;;;10.65;;
29358;SDS011;16347;53.232;6.556;2023-03-21T11:56:24;21.75;;;10.93;;
29358;SDS011;16347;53.232;6.556;2023-03-21T11:58:57;26.48;;;11.45;;
29358;SDS011;16347;53.232;6.556;2023-03-21T12:01:39;27.17;;;10.68;;
29358;SDS011;16347;53.232;6.556;2023-03-21T12:04:19;23.85;;;10.80;;
29358;SDS011;16347;53.232;6.556;2023-03-21T12:06:55;20.90;;;10.05;;
29358;SDS011;16347;53.232;6.556;2023-03-21T12:09:33;27.25;;;10.52;;
29358;SDS011;16347;53.232;6.556;2023-03-21T12:12:08;21.38;;;10.18;;
29358;SDS011;16347;53.232;6.556;2023-03-21T12:15:05;22.13;;;10.48;;
29358;SDS011;16347;53.232;6.556;2023-03-21T12:17:42;21.25;;;10.45;;
29358;SDS011;16347;53.232;6.556;2023-03-21T12:20:22;26.42;;;10.35;;
29358;SDS011;16347;53.232;6.556;2023-03-21T12:23:12;21.27;;;10.60;;
29358;SDS011;16347;53.232;6.556;2023-03-21T12:25:51;26.17;;;10.25;;
29358;SDS011;16347;53.232;6.556;2023-03-21T12:28:29;20.85;;;9.95;;
29358;SDS011;16347;53.232;6.556;2023-03-21T12:31:10;24.20;;;9.48;;
29358;SDS011;16347;53.232;6.556;2023-03-21T12:33:54;24.67;;;9.57;;
29358;SDS011;16347;53.232;6.556;2023-03-21T12:36:34;21.08;;;8.98;;
29358;SDS011;16347;53.232;6.556;2023-03-21T12:39:20;25.00;;;9.68;;
29358;SDS011;16347;53.232;6.556;2023-03-21T12:41:57;23.05;;;10.00;;
29358;SDS011;16347;53.232;6.556;2023-03-21T12:44:36;21.67;;;9.57;;
29358;SDS011;16347;53.232;6.556;2023-03-21T12:47:08;24.17;;;9.45;;
29358;SDS011;16347;53.232;6.556;2023-03-21T12:49:40;24.20;;;9.73;;
29358;SDS011;16347;53.232;6.556;2023-03-21T12:52:13;18.13;;;8.70;;
29358;SDS011;16347;53.232;6.556;2023-03-21T12:54:46;18.20;;;8.77;;
29358;SDS011;16347;53.232;6.556;2023-03-21T12:57:18;19.05;;;8.63;;
29358;SDS011;16347;53.232;6.556;2023-03-21T12:59:51;23.85;;;9.95;;
29358;SDS011;16347;53.232;6.556;2023-03-21T13:02:22;21.45;;;10.10;;
29358;SDS011;16347;53.232;6.556;2023-03-21T13:04:56;23.40;;;9.35;;
29358;SDS011;16347;53.232;6.556;2023-03-21T13:07:32;23.95;;;9.20;;
29358;SDS011;16347;53.232;6.556;2023-03-21T13:10:10;19.77;;;9.18;;
29358;SDS011;16347;53.232;6.556;2023-03-21T13:12:44;20.73;;;8.70;;
29358;SDS011;16347;53.232;6.556;2023-03-21T13:15:27;20.17;;;8.00;;
29358;SDS011;16347;53.232;6.556;2023-03-21T13:18:11;21.67;;;9.13;;
29358;SDS011;16347;53.232;6.556;2023-03-21T13:20:45;21.02;;;8.82;;
29358;SDS011;16347;53.232;6.556;2023-03-21T13:23:16;20.98;;;8.93;;
29358;SDS011;16347;53.232;6.556;2023-03-21T13:25:46;23.10;;;8.57;;
29358;SDS011;16347;53.232;6.556;2023-03-21T13:28:18;20.75;;;9.35;;
29358;SDS011;16347;53.232;6.556;2023-03-21T13:30:48;19.77;;;8.23;;
29358;SDS011;16347;53.232;6.556;2023-03-21T13:33:20;16.10;;;8.27;;
29358;SDS011;16347;53.232;6.556;2023-03-21T13:35:56;18.35;;;8.30;;
29358;SDS011;16347;53.232;6.556;2023-03-21T13:38:32;17.63;;;8.18;;
29358;SDS011;16347;53.232;6.556;2023-03-21T13:41:04;14.50;;;8.13;;
29358;SDS011;16347;53.232;6.556;2023-03-21T13:43:39;20.13;;;8.40;;
29358;SDS011;16347;53.232;6.556;2023-03-21T13:46:09;19.15;;;8.75;;
29358;SDS011;16347;53.232;6.556;2023-03-21T13:48:44;19.17;;;9.07;;
29358;SDS011;16347;53.232;6.556;2023-03-21T13:51:40;19.63;;;8.48;;
29358;SDS011;16347;53.232;6.556;2023-03-21T13:54:18;22.48;;;9.07;;
29358;SDS011;16347;53.232;6.556;2023-03-21T13:56:57;23.92;;;8.73;;
29358;SDS011;16347;53.232;6.556;2023-03-21T13:59:40;22.42;;;8.93;;
29358;SDS011;16347;53.232;6.556;2023-03-21T14:02:23;27.97;;;9.40;;
29358;SDS011;16347;53.232;6.556;2023-03-21T14:04:57;20.20;;;8.70;;
29358;SDS011;16347;53.232;6.556;2023-03-21T14:07:32;18.10;;;8.93;;
29358;SDS011;16347;53.232;6.556;2023-03-21T14:10:03;20.20;;;8.98;;
29358;SDS011;16347;53.232;6.556;2023-03-21T14:12:37;23.98;;;8.77;;
29358;SDS011;16347;53.232;6.556;2023-03-21T14:15:12;21.08;;;8.25;;
29358;SDS011;16347;53.232;6.556;2023-03-21T14:17:48;23.00;;;10.40;;
29358;SDS011;16347;53.232;6.556;2023-03-21T14:20:19;27.33;;;8.85;;
29358;SDS011;16347;53.232;6.556;2023-03-21T14:22:49;18.88;;;8.55;;
29358;SDS011;16347;53.232;6.556;2023-03-21T14:25:19;21.42;;;8.95;;
29358;SDS011;16347;53.232;6.556;2023-03-21T14:27:54;18.23;;;9.07;;
29358;SDS011;16347;53.232;6.556;2023-03-21T14:30:27;28.25;;;9.20;;
29358;SDS011;16347;53.232;6.556;2023-03-21T14:33:00;25.83;;;9.07;;
29358;SDS011;16347;53.232;6.556;2023-03-21T14:35:34;24.40;;;9.50;;
29358;SDS011;16347;53.232;6.556;2023-03-21T14:38:04;18.27;;;8.68;;
29358;SDS011;16347;53.232;6.556;2023-03-21T14:40:34;19.52;;;9.40;;
29358;SDS011;16347;53.232;6.556;2023-03-21T14:43:05;27.08;;;9.50;;
29358;SDS011;16347;53.232;6.556;2023-03-21T14:45:34;21.95;;;9.85;;
29358;SDS011;16347;53.232;6.556;2023-03-21T14:48:05;26.67;;;10.35;;
29358;SDS011;16347;53.232;6.556;2023-03-21T14:50:36;24.55;;;10.85;;
29358;SDS011;16347;53.232;6.556;2023-03-21T14:55:41;23.88;;;9.60;;
29358;SDS011;16347;53.232;6.556;2023-03-21T14:58:13;23.27;;;9.02;;
29358;SDS011;16347;53.232;6.556;2023-03-21T15:00:45;21.45;;;8.77;;
29358;SDS011;16347;53.232;6.556;2023-03-21T15:03:15;23.38;;;8.68;;
29358;SDS011;16347;53.232;6.556;2023-03-21T15:05:44;23.40;;;9.40;;
29358;SDS011;16347;53.232;6.556;2023-03-21T15:08:14;19.02;;;9.30;;
29358;SDS011;16347;53.232;6.556;2023-03-21T15:10:53;20.65;;;9.07;;